createdAt,value
2019-01-24T00:00:17.122Z,43.63
2019-01-24T00:02:45.740Z,43.30
2019-01-24T00:05:14.174Z,43.68
2019-01-24T00:07:42.684Z,44.55
2019-01-24T00:10:12.126Z,43.20
2019-01-24T00:12:40.595Z,44.03
2019-01-24T00:15:10.366Z,48.10
2019-01-24T00:17:38.847Z,45.30
2019-01-24T00:20:11.631Z,42.43
2019-01-24T00:22:40.211Z,41.02
2019-01-24T00:25:10.162Z,44.67
2019-01-24T00:27:38.614Z,41.40
2019-01-24T00:30:11.291Z,38.90
2019-01-24T00:32:39.768Z,41.45
2019-01-24T00:35:09.301Z,41.08
2019-01-24T00:37:37.856Z,39.18
2019-01-24T00:40:13.862Z,40.92
2019-01-24T00:42:42.357Z,42.40
2019-01-24T00:45:10.980Z,40.40
2019-01-24T00:47:39.423Z,40.98
2019-01-24T00:50:09.389Z,42.50
2019-01-24T00:52:37.853Z,38.85
2019-01-24T00:55:07.874Z,43.92
2019-01-24T00:57:36.457Z,43.28
2019-01-24T01:00:06.372Z,44.60
2019-01-24T01:02:34.956Z,43.60
2019-01-24T01:05:04.638Z,44.03
2019-01-24T01:07:33.087Z,46.37
2019-01-24T01:10:01.539Z,44.40
2019-01-24T01:12:30.108Z,43.63
2019-01-24T01:14:58.682Z,44.85
2019-01-24T01:17:27.136Z,42.78
2019-01-24T01:19:55.757Z,45.35
2019-01-24T01:22:24.239Z,44.35
2019-01-24T01:24:57.288Z,43.60
2019-01-24T01:27:29.857Z,47.00
2019-01-24T01:29:59.439Z,46.85
2019-01-24T01:32:32.072Z,43.58
2019-01-24T01:35:00.569Z,45.20
2019-01-24T01:37:29.054Z,46.92
2019-01-24T01:39:57.596Z,48.98
2019-01-24T01:42:26.116Z,49.45
2019-01-24T01:44:54.591Z,50.25
2019-01-24T01:47:23.182Z,47.90
2019-01-24T01:49:51.635Z,49.18
2019-01-24T01:52:20.244Z,49.60
2019-01-24T01:54:48.690Z,49.20
2019-01-24T01:57:36.761Z,48.68
2019-01-24T02:00:06.782Z,48.30
2019-01-24T02:02:35.264Z,53.15
2019-01-24T02:05:05.485Z,52.20
2019-01-24T02:07:34.003Z,53.17
2019-01-24T02:10:02.462Z,54.83
2019-01-24T02:12:30.968Z,51.55
2019-01-24T02:14:59.419Z,53.92
2019-01-24T02:17:27.993Z,59.85
2019-01-24T02:19:57.171Z,58.70
2019-01-24T02:22:25.629Z,58.58
2019-01-24T02:24:54.156Z,58.40
2019-01-24T02:27:22.737Z,60.03
2019-01-24T02:29:51.218Z,59.50
2019-01-24T02:32:19.753Z,59.10
2019-01-24T02:34:49.742Z,57.75
2019-01-24T02:37:18.402Z,57.98
2019-01-24T02:39:46.886Z,56.28
2019-01-24T02:42:15.374Z,56.88
2019-01-24T02:44:43.845Z,60.35
2019-01-24T02:47:13.046Z,57.62
2019-01-24T02:49:41.627Z,55.58
2019-01-24T02:52:10.210Z,58.65
2019-01-24T02:54:38.690Z,55.35
2019-01-24T02:57:07.168Z,56.80
2019-01-24T02:59:35.653Z,52.80
2019-01-24T03:02:05.879Z,54.23
2019-01-24T03:04:34.460Z,55.28
2019-01-24T03:07:03.042Z,52.83
2019-01-24T03:09:50.806Z,53.65
2019-01-24T03:12:19.259Z,52.30
2019-01-24T03:14:47.733Z,50.23
2019-01-24T03:17:16.222Z,52.17
2019-01-24T03:19:44.699Z,50.20
2019-01-24T03:22:13.152Z,51.60
2019-01-24T03:24:41.661Z,53.30
2019-01-24T03:27:10.146Z,52.62
2019-01-24T03:29:38.646Z,50.98
2019-01-24T03:32:07.208Z,51.53
2019-01-24T03:34:35.698Z,52.03
2019-01-24T03:37:04.855Z,49.38
2019-01-24T03:39:33.367Z,52.00
2019-01-24T03:42:02.564Z,52.03
2019-01-24T03:44:30.964Z,49.85
2019-01-24T03:46:59.527Z,50.98
2019-01-24T03:49:28.017Z,50.43
2019-01-24T03:51:56.475Z,47.73
2019-01-24T03:54:25.074Z,50.78
2019-01-24T03:56:53.541Z,49.75
2019-01-24T03:59:22.001Z,48.63
2019-01-24T04:01:50.484Z,51.63
2019-01-24T04:04:19.099Z,46.92
2019-01-24T04:06:47.544Z,47.98
2019-01-24T04:09:16.001Z,48.73
2019-01-24T04:11:44.542Z,46.83
2019-01-24T04:14:12.957Z,46.75
2019-01-24T04:16:41.398Z,49.42
2019-01-24T04:19:09.887Z,48.48
2019-01-24T04:21:38.366Z,46.40
2019-01-24T04:24:06.805Z,52.35
2019-01-24T04:26:35.297Z,47.43
2019-01-24T04:29:03.808Z,50.38
2019-01-24T04:31:32.289Z,52.43
2019-01-24T04:34:00.801Z,48.92
2019-01-24T04:36:29.354Z,49.00
2019-01-24T04:38:57.818Z,46.30
2019-01-24T04:41:26.321Z,46.20
2019-01-24T04:43:54.775Z,46.92
2019-01-24T04:46:23.231Z,46.13
2019-01-24T04:48:51.735Z,45.25
2019-01-24T04:51:20.191Z,46.75
2019-01-24T04:53:48.645Z,45.55
2019-01-24T04:56:17.144Z,43.70
2019-01-24T04:58:45.601Z,45.00
2019-01-24T05:01:14.064Z,47.30
2019-01-24T05:03:42.612Z,48.75
2019-01-24T05:06:11.607Z,46.92
2019-01-24T05:08:40.119Z,43.95
2019-01-24T05:11:08.571Z,46.68
2019-01-24T05:13:37.014Z,46.58
2019-01-24T05:16:05.546Z,47.38
2019-01-24T05:18:33.974Z,54.20
2019-01-24T05:21:02.423Z,48.30
2019-01-24T05:23:30.946Z,48.17
2019-01-24T05:25:59.382Z,47.98
2019-01-24T05:28:27.839Z,49.38
2019-01-24T05:30:56.352Z,50.28
2019-01-24T05:33:24.826Z,48.15
2019-01-24T05:35:53.278Z,50.55
2019-01-24T05:38:21.792Z,50.80
2019-01-24T05:40:50.324Z,48.08
2019-01-24T05:43:18.815Z,48.25
2019-01-24T05:45:47.338Z,48.20
2019-01-24T05:48:15.922Z,48.28
2019-01-24T05:50:44.411Z,45.85
2019-01-24T05:53:12.880Z,48.52
2019-01-24T05:55:42.980Z,48.20
2019-01-24T05:58:11.674Z,47.38
2019-01-24T06:00:41.527Z,48.98
2019-01-24T06:03:10.083Z,47.33
2019-01-24T06:05:41.938Z,47.85
2019-01-24T06:08:08.627Z,47.75
2019-01-24T06:10:37.087Z,46.10
2019-01-24T06:13:05.591Z,47.90
2019-01-24T06:15:34.057Z,44.40
2019-01-24T06:18:02.608Z,50.67
2019-01-24T06:20:31.099Z,48.33
2019-01-24T06:22:59.673Z,47.55
2019-01-24T06:25:28.188Z,48.58
2019-01-24T06:27:56.640Z,46.15
2019-01-24T06:30:25.218Z,47.60
2019-01-24T06:32:53.694Z,51.05
2019-01-24T06:35:22.180Z,48.13
2019-01-24T06:37:50.652Z,46.45
2019-01-24T06:40:19.103Z,47.20
2019-01-24T06:42:47.623Z,47.43
2019-01-24T06:45:17.664Z,47.27
2019-01-24T06:47:46.224Z,48.55
2019-01-24T06:50:16.139Z,45.12
2019-01-24T06:52:44.679Z,47.48
2019-01-24T06:55:14.734Z,50.05
2019-01-24T06:57:43.191Z,46.02
2019-01-24T07:00:16.218Z,48.10
2019-01-24T07:02:44.679Z,49.25
2019-01-24T07:05:13.819Z,46.55
2019-01-24T07:07:42.367Z,46.33
2019-01-24T07:10:14.906Z,47.80
2019-01-24T07:12:43.938Z,69.00
2019-01-24T07:15:19.481Z,54.40
2019-01-24T07:17:47.935Z,47.90
2019-01-24T07:20:17.983Z,56.10
2019-01-24T07:22:46.488Z,50.05
2019-01-24T07:25:22.363Z,47.80
2019-01-24T07:27:50.848Z,46.05
2019-01-24T07:30:20.503Z,47.40
2019-01-24T07:32:49.791Z,47.33
2019-01-24T07:35:19.416Z,48.68
2019-01-24T07:37:48.819Z,46.83
2019-01-24T07:40:18.942Z,45.78
2019-01-24T07:42:48.140Z,49.60
2019-01-24T07:45:24.379Z,43.42
2019-01-24T07:47:52.831Z,45.33
2019-01-24T07:50:21.343Z,45.83
2019-01-24T07:52:50.868Z,44.55
2019-01-24T07:55:19.276Z,47.48
2019-01-24T07:58:07.034Z,60.98
2019-01-24T08:00:35.562Z,43.50
2019-01-24T08:03:04.859Z,45.60
2019-01-24T08:05:34.041Z,45.30
2019-01-24T08:08:02.487Z,43.87
2019-01-24T08:10:30.940Z,44.55
2019-01-24T08:12:59.439Z,43.38
2019-01-24T08:15:29.189Z,45.43
2019-01-24T08:17:58.000Z,45.10
2019-01-24T08:20:27.889Z,42.80
2019-01-24T08:22:56.399Z,43.73
2019-01-24T08:25:24.896Z,42.67
2019-01-24T08:27:53.461Z,44.25
2019-01-24T08:30:23.171Z,43.80
2019-01-24T08:32:52.291Z,40.40
2019-01-24T08:35:20.854Z,42.70
2019-01-24T08:37:49.434Z,45.28
2019-01-24T08:40:19.431Z,42.98
2019-01-24T08:42:47.927Z,44.80
2019-01-24T08:45:17.081Z,43.08
2019-01-24T08:47:45.535Z,42.40
2019-01-24T08:50:18.700Z,44.33
2019-01-24T08:52:47.879Z,42.38
2019-01-24T08:55:17.809Z,43.28
2019-01-24T08:57:46.303Z,43.28
2019-01-24T09:00:16.311Z,41.28
2019-01-24T09:02:44.791Z,41.40
2019-01-24T09:05:14.192Z,43.78
2019-01-24T09:07:42.676Z,40.58
2019-01-24T09:10:12.566Z,41.30
2019-01-24T09:12:41.066Z,41.53
2019-01-24T09:15:11.088Z,42.40
2019-01-24T09:17:39.538Z,43.60
2019-01-24T09:20:09.499Z,44.15
2019-01-24T09:22:37.950Z,40.15
2019-01-24T09:25:07.703Z,39.27
2019-01-24T09:27:36.260Z,41.70
2019-01-24T09:30:08.934Z,42.90
2019-01-24T09:32:37.431Z,42.25
2019-01-24T09:35:07.578Z,42.43
2019-01-24T09:37:36.031Z,41.65
2019-01-24T09:40:06.038Z,42.67
2019-01-24T09:42:34.452Z,42.85
2019-01-24T09:45:03.051Z,42.60
2019-01-24T09:47:31.507Z,41.08
2019-01-24T09:50:00.476Z,40.20
2019-01-24T09:52:29.468Z,37.55
2019-01-24T09:54:58.461Z,39.75
2019-01-24T09:57:27.455Z,38.60
2019-01-24T09:59:56.448Z,41.60
2019-01-24T10:02:25.340Z,41.92
2019-01-24T10:04:54.334Z,37.70
2019-01-24T10:07:23.324Z,42.43
2019-01-24T10:09:52.214Z,39.78
2019-01-24T10:12:21.107Z,40.50
2019-01-24T10:14:50.004Z,38.95
2019-01-24T10:17:18.890Z,41.05
2019-01-24T10:19:47.777Z,41.00
2019-01-24T10:22:16.252Z,42.83
2019-01-24T10:24:44.699Z,43.25
2019-01-24T10:27:32.468Z,40.17
2019-01-24T10:30:00.926Z,40.15
2019-01-24T10:32:29.371Z,41.00
2019-01-24T10:34:57.914Z,44.65
2019-01-24T10:37:26.328Z,42.83
2019-01-24T10:39:54.780Z,41.68
2019-01-24T10:42:23.358Z,44.33
2019-01-24T10:44:51.839Z,41.63
2019-01-24T10:47:20.278Z,41.02
2019-01-24T10:49:48.801Z,43.87
2019-01-24T10:52:18.692Z,45.35
2019-01-24T10:54:47.404Z,43.28
2019-01-24T10:57:15.931Z,43.60
2019-01-24T10:59:44.383Z,44.15
2019-01-24T11:02:12.947Z,43.58
2019-01-24T11:04:41.439Z,44.85
2019-01-24T11:07:09.913Z,44.50
2019-01-24T11:09:38.359Z,39.27
2019-01-24T11:12:06.871Z,41.23
2019-01-24T11:14:35.327Z,41.95
2019-01-24T11:17:03.835Z,41.25
2019-01-24T11:19:32.303Z,39.58
2019-01-24T11:22:00.728Z,39.05
2019-01-24T11:24:29.277Z,40.10
2019-01-24T11:26:57.758Z,41.02
2019-01-24T11:29:26.237Z,43.28
2019-01-24T11:31:54.823Z,39.35
2019-01-24T11:34:23.287Z,40.60
2019-01-24T11:36:56.978Z,40.05
2019-01-24T11:39:21.898Z,42.27
2019-01-24T11:41:50.386Z,40.90
2019-01-24T11:44:18.799Z,42.27
2019-01-24T11:46:47.758Z,41.48
2019-01-24T11:49:16.792Z,43.38
2019-01-24T11:51:45.647Z,44.18
2019-01-24T11:54:14.634Z,43.45
2019-01-24T11:56:43.628Z,43.17
2019-01-24T11:59:12.620Z,41.23
2019-01-24T12:01:41.512Z,43.87
2019-01-24T12:04:10.402Z,42.27
2019-01-24T12:06:39.292Z,40.48
2019-01-24T12:09:09.836Z,40.25
2019-01-24T12:11:38.815Z,39.48
2019-01-24T12:14:07.706Z,40.63
2019-01-24T12:16:36.699Z,39.80
2019-01-24T12:19:06.314Z,37.88
2019-01-24T12:21:35.197Z,39.55
2019-01-24T12:24:05.009Z,42.40
2019-01-24T12:26:33.901Z,41.05
2019-01-24T12:29:02.791Z,39.85
2019-01-24T12:31:31.374Z,39.25
2019-01-24T12:33:59.825Z,38.95
2019-01-24T12:36:28.275Z,39.65
2019-01-24T12:38:56.766Z,42.00
2019-01-24T12:41:25.299Z,39.63
2019-01-24T12:43:53.819Z,39.83
2019-01-24T12:46:22.363Z,39.20
2019-01-24T12:48:50.767Z,42.08
2019-01-24T12:51:19.222Z,39.20
2019-01-24T12:53:47.708Z,39.13
2019-01-24T12:56:16.185Z,38.73
2019-01-24T12:58:44.633Z,35.38
2019-01-24T13:01:13.131Z,35.63
2019-01-24T13:03:41.587Z,35.73
2019-01-24T13:06:10.110Z,34.13
2019-01-24T13:08:38.587Z,37.28
2019-01-24T13:11:07.044Z,32.80
2019-01-24T13:13:35.501Z,32.70
2019-01-24T13:16:03.998Z,33.35
2019-01-24T13:18:32.447Z,34.48
2019-01-24T13:21:00.995Z,32.45
2019-01-24T13:23:29.494Z,35.03
2019-01-24T13:25:58.060Z,32.78
2019-01-24T13:28:26.551Z,32.78
2019-01-24T13:30:55.019Z,32.73
2019-01-24T13:33:23.508Z,33.63
2019-01-24T13:35:51.968Z,32.23
2019-01-24T13:38:20.421Z,32.93
2019-01-24T13:40:48.923Z,32.23
2019-01-24T13:43:17.375Z,34.03
2019-01-24T13:45:45.909Z,33.00
2019-01-24T13:48:14.433Z,35.00
2019-01-24T13:50:42.973Z,33.33
2019-01-24T13:53:11.451Z,33.63
2019-01-24T13:55:40.038Z,33.33
2019-01-24T13:58:09.235Z,32.55
2019-01-24T14:00:37.663Z,33.35
2019-01-24T14:03:13.816Z,33.13
2019-01-24T14:05:42.270Z,30.52
2019-01-24T14:08:10.731Z,33.05
2019-01-24T14:10:39.221Z,32.30
2019-01-24T14:13:07.681Z,31.73
2019-01-24T14:15:36.183Z,33.00
2019-01-24T14:18:05.328Z,32.67
2019-01-24T14:20:33.859Z,32.98
2019-01-24T14:23:02.337Z,34.60
2019-01-24T14:25:30.924Z,30.68
2019-01-24T14:27:59.379Z,32.75
2019-01-24T14:30:28.828Z,34.23
2019-01-24T14:32:57.331Z,32.83
2019-01-24T14:35:25.784Z,34.92
2019-01-24T14:37:54.246Z,35.00
2019-01-24T14:40:22.738Z,34.35
2019-01-24T14:42:51.291Z,33.88
2019-01-24T14:45:27.346Z,37.23
2019-01-24T14:47:56.467Z,37.48
2019-01-24T14:50:26.618Z,34.60
2019-01-24T14:52:55.890Z,35.58
2019-01-24T14:55:24.376Z,34.33
2019-01-24T14:57:52.863Z,36.40
2019-01-24T15:00:28.279Z,34.85
2019-01-24T15:02:56.732Z,36.10
2019-01-24T15:05:25.259Z,37.85
2019-01-24T15:07:53.684Z,34.65
2019-01-24T15:10:22.936Z,35.88
2019-01-24T15:12:51.521Z,35.15
2019-01-24T15:15:21.749Z,35.33
2019-01-24T15:17:50.939Z,38.78
2019-01-24T15:20:20.920Z,37.75
2019-01-24T15:22:49.366Z,35.38
2019-01-24T15:25:19.126Z,39.13
2019-01-24T15:27:47.732Z,37.13
2019-01-24T15:30:17.750Z,36.70
2019-01-24T15:32:46.332Z,36.98
2019-01-24T15:35:15.224Z,38.80
2019-01-24T15:37:43.807Z,37.70
2019-01-24T15:40:19.636Z,37.88
2019-01-24T15:42:48.099Z,38.98
2019-01-24T15:45:17.748Z,40.83
2019-01-24T15:47:47.035Z,37.67
2019-01-24T15:50:16.989Z,42.25
2019-01-24T15:52:46.144Z,41.95
2019-01-24T15:55:14.741Z,44.58
2019-01-24T15:58:02.580Z,45.08
2019-01-24T16:00:32.905Z,49.55
2019-01-24T16:03:01.386Z,45.12
2019-01-24T16:05:29.811Z,43.80
2019-01-24T16:08:01.934Z,44.45
2019-01-24T16:10:28.403Z,42.20
2019-01-24T16:12:56.951Z,45.15
2019-01-24T16:15:30.127Z,45.58
2019-01-24T16:17:58.675Z,41.65
2019-01-24T16:20:28.024Z,40.25
2019-01-24T16:22:56.437Z,42.78
2019-01-24T16:25:26.367Z,39.88
2019-01-24T16:27:54.900Z,39.27
2019-01-24T16:30:24.795Z,43.78
2019-01-24T16:32:53.942Z,42.50
2019-01-24T16:35:22.494Z,40.50
2019-01-24T16:37:50.976Z,38.63
2019-01-24T16:40:21.242Z,38.95
2019-01-24T16:42:49.781Z,39.65
2019-01-24T16:45:19.898Z,38.80
2019-01-24T16:47:48.355Z,38.80
2019-01-24T16:50:17.929Z,39.55
2019-01-24T16:52:46.387Z,38.92
2019-01-24T16:55:16.282Z,40.20
2019-01-24T16:57:45.631Z,38.80
2019-01-24T17:00:18.332Z,41.10
2019-01-24T17:02:46.814Z,40.70
2019-01-24T17:05:15.327Z,41.75
2019-01-24T17:07:43.738Z,37.17
2019-01-24T17:10:13.722Z,40.90
2019-01-24T17:12:42.164Z,40.67
2019-01-24T17:15:12.413Z,39.73
2019-01-24T17:17:41.009Z,40.38
2019-01-24T17:20:16.760Z,43.83
2019-01-24T17:22:45.337Z,41.33
2019-01-24T17:25:14.544Z,41.68
2019-01-24T17:27:46.309Z,40.58
2019-01-24T17:30:14.580Z,40.38
2019-01-24T17:32:43.033Z,42.70
2019-01-24T17:35:11.539Z,42.45
2019-01-24T17:37:40.019Z,41.83
2019-01-24T17:40:15.892Z,42.85
2019-01-24T17:42:44.396Z,44.63
2019-01-24T17:45:14.323Z,43.85
2019-01-24T17:47:42.779Z,41.37
2019-01-24T17:50:12.972Z,42.40
2019-01-24T17:52:41.427Z,41.90
2019-01-24T17:55:14.236Z,43.87
2019-01-24T17:57:42.715Z,42.90
2019-01-24T18:00:16.834Z,42.78
2019-01-24T18:02:45.311Z,42.78
2019-01-24T18:05:13.945Z,38.88
2019-01-24T18:07:43.908Z,44.35
2019-01-24T18:10:14.138Z,43.38
2019-01-24T18:12:43.537Z,42.05
2019-01-24T18:15:13.655Z,41.73
2019-01-24T18:17:42.107Z,42.45
2019-01-24T18:20:18.191Z,39.83
2019-01-24T18:22:44.575Z,40.73
2019-01-24T18:25:13.522Z,42.17
2019-01-24T18:27:41.963Z,39.67
2019-01-24T18:30:12.160Z,41.90
2019-01-24T18:32:40.605Z,39.20
2019-01-24T18:35:09.115Z,44.27
2019-01-24T18:37:37.820Z,44.38
2019-01-24T18:40:07.736Z,44.77
2019-01-24T18:42:36.221Z,43.60
2019-01-24T18:45:06.254Z,44.98
2019-01-24T18:47:34.994Z,43.45
2019-01-24T18:50:04.280Z,44.03
2019-01-24T18:52:32.757Z,41.42
2019-01-24T18:55:01.377Z,42.90
2019-01-24T18:57:29.967Z,40.43
2019-01-24T18:59:58.424Z,41.20
2019-01-24T19:02:26.867Z,40.10
2019-01-24T19:04:55.355Z,39.88
2019-01-24T19:07:24.040Z,41.68
2019-01-24T19:09:52.489Z,41.37
2019-01-24T19:12:21.008Z,41.42
2019-01-24T19:14:49.510Z,39.53
2019-01-24T19:17:18.003Z,40.67
2019-01-24T19:19:46.452Z,40.60
2019-01-24T19:22:14.955Z,39.85
2019-01-24T19:24:43.386Z,42.88
2019-01-24T19:27:11.830Z,43.80
2019-01-24T19:29:40.325Z,44.10
2019-01-24T19:32:08.796Z,41.63
2019-01-24T19:34:37.414Z,44.90
2019-01-24T19:37:06.008Z,40.52
2019-01-24T19:39:34.900Z,41.88
2019-01-24T19:42:03.671Z,42.55
2019-01-24T19:44:32.151Z,42.08
2019-01-24T19:47:00.598Z,39.42
2019-01-24T19:49:29.043Z,37.23
2019-01-24T19:51:57.629Z,43.23
2019-01-24T19:54:26.211Z,39.25
2019-01-24T19:56:55.922Z,39.08
2019-01-24T19:59:24.786Z,41.05
2019-01-24T20:01:53.493Z,39.70
2019-01-24T20:04:21.939Z,41.30
2019-01-24T20:06:50.664Z,40.20
2019-01-24T20:09:19.351Z,43.28
2019-01-24T20:11:47.843Z,42.15
2019-01-24T20:14:16.344Z,42.53
2019-01-24T20:16:44.789Z,40.63
2019-01-24T20:19:13.492Z,41.53
2019-01-24T20:21:42.023Z,40.65
2019-01-24T20:24:10.476Z,40.83
2019-01-24T20:26:38.932Z,41.10
2019-01-24T20:29:07.449Z,40.50
2019-01-24T20:31:39.683Z,41.20
2019-01-24T20:34:08.155Z,41.10
2019-01-24T20:36:38.318Z,39.40
2019-01-24T20:39:07.907Z,37.15
2019-01-24T20:41:36.360Z,37.63
2019-01-24T20:44:04.843Z,39.80
2019-01-24T20:46:33.367Z,41.95
2019-01-24T20:49:01.820Z,39.25
2019-01-24T20:51:30.267Z,38.48
2019-01-24T20:53:58.906Z,36.68
2019-01-24T20:56:27.547Z,34.65
2019-01-24T20:58:56.007Z,34.73
2019-01-24T21:01:24.497Z,32.25
2019-01-24T21:03:55.374Z,32.35
2019-01-24T21:06:23.039Z,35.15
2019-01-24T21:08:51.530Z,35.25
2019-01-24T21:11:20.031Z,33.45
2019-01-24T21:13:48.448Z,36.13
2019-01-24T21:16:16.927Z,32.98
2019-01-24T21:18:45.380Z,32.80
2019-01-24T21:21:13.970Z,32.90
2019-01-24T21:23:42.420Z,35.63
2019-01-24T21:26:10.867Z,35.25
2019-01-24T21:28:39.356Z,38.63
2019-01-24T21:31:07.806Z,39.65
2019-01-24T21:33:36.267Z,37.70
2019-01-24T21:36:04.754Z,37.75
2019-01-24T21:38:33.304Z,39.83
2019-01-24T21:41:01.756Z,38.40
2019-01-24T21:43:30.440Z,37.60
2019-01-24T21:45:58.922Z,39.42
2019-01-24T21:48:27.611Z,39.38
2019-01-24T21:50:56.290Z,38.60
2019-01-24T21:53:24.702Z,38.63
2019-01-24T21:55:53.255Z,40.05
2019-01-24T21:58:21.748Z,38.55
2019-01-24T22:00:51.653Z,39.20
2019-01-24T22:03:20.747Z,39.15
2019-01-24T22:05:49.314Z,37.25
2019-01-24T22:08:18.016Z,38.08
2019-01-24T22:10:46.527Z,39.70
2019-01-24T22:13:14.976Z,40.35
2019-01-24T22:15:43.664Z,40.23
2019-01-24T22:18:12.248Z,38.38
2019-01-24T22:20:40.729Z,36.58
2019-01-24T22:23:09.158Z,40.17
2019-01-24T22:25:37.692Z,39.27
2019-01-24T22:28:06.992Z,38.20
2019-01-24T22:30:38.525Z,40.30
2019-01-24T22:33:07.167Z,39.38
2019-01-24T22:35:35.717Z,38.08
2019-01-24T22:38:05.310Z,37.88
2019-01-24T22:40:33.759Z,41.63
2019-01-24T22:43:02.208Z,37.48
2019-01-24T22:45:30.762Z,39.38
2019-01-24T22:47:59.255Z,40.35
2019-01-24T22:50:27.827Z,39.63
2019-01-24T22:52:56.314Z,41.37
2019-01-24T22:55:24.773Z,39.05
2019-01-24T22:57:53.277Z,39.85
2019-01-24T23:00:24.768Z,38.35
2019-01-24T23:02:53.305Z,40.73
2019-01-24T23:05:21.780Z,40.12
2019-01-24T23:07:50.266Z,38.00
2019-01-24T23:10:18.850Z,42.70
2019-01-24T23:12:47.638Z,39.75
2019-01-24T23:15:16.091Z,41.65
2019-01-24T23:17:44.538Z,40.60
2019-01-24T23:20:13.148Z,38.65
2019-01-24T23:22:41.597Z,39.58
2019-01-24T23:25:10.150Z,39.90
2019-01-24T23:27:38.730Z,39.75
2019-01-24T23:30:08.697Z,40.45
2019-01-24T23:32:37.228Z,42.00
2019-01-24T23:35:06.876Z,41.18
2019-01-24T23:37:35.321Z,40.98
2019-01-24T23:40:05.336Z,41.75
2019-01-24T23:42:33.856Z,40.80
2019-01-24T23:45:02.303Z,38.78
2019-01-24T23:47:30.879Z,39.78
2019-01-24T23:49:59.359Z,41.88
2019-01-24T23:52:27.841Z,37.50
2019-01-24T23:54:56.277Z,38.45
2019-01-24T23:57:24.763Z,37.55
2019-01-24T23:59:53.216Z,39.38
